Time;durP1;ratioP1;P1;durP2;ratioP2;P2;SDS_P1;SDS_P2;PMS_P1;PMS_P2;Temp;Humidity;BMP_temperature;BMP_pressure;BME280_temperature;BME280_humidity;BME280_pressure;Samples;Min_cycle;Max_cycle;Signal;HPM_P1;HPM_P2
2023/10/14 00:01:11;;;;;;;20.52;7.88;;;20.30;99.90;;;;;;5018978;28;20028;-56
2023/10/14 00:03:41;;;;;;;25.98;8.10;;;20.30;99.90;;;;;;5019696;28;20041;-59
2023/10/14 00:06:07;;;;;;;22.80;7.40;;;20.30;99.90;;;;;;5023154;28;20111;-56
2023/10/14 00:08:57;;;;;;;17.85;7.70;;;20.20;99.90;;;;;;5019737;28;20029;-60
2023/10/14 00:11:39;;;;;;;19.55;6.90;;;20.30;99.90;;;;;;5018498;28;20022;-58
2023/10/14 00:14:09;;;;;;;18.77;7.78;;;20.30;99.90;;;;;;5023729;28;20488;-55
2023/10/14 00:16:36;;;;;;;25.20;8.25;;;20.30;99.90;;;;;;5024856;28;20526;-58
2023/10/14 00:19:09;;;;;;;19.67;7.50;;;20.30;99.90;;;;;;5017368;28;20097;-56
2023/10/14 00:21:36;;;;;;;25.83;8.15;;;20.30;99.90;;;;;;5020340;28;20090;-59
2023/10/14 00:24:04;;;;;;;19.88;7.32;;;20.30;99.90;;;;;;5014448;28;20079;-56
2023/10/14 00:26:31;;;;;;;19.60;8.02;;;20.30;99.90;;;;;;5023501;28;20074;-53
2023/10/14 00:29:10;;;;;;;15.55;6.20;;;20.30;99.90;;;;;;5014640;28;20076;-60
2023/10/14 00:31:36;;;;;;;17.27;7.45;;;20.30;99.90;;;;;;5023775;28;20017;-57
2023/10/14 00:34:03;;;;;;;16.33;7.15;;;20.30;99.90;;;;;;5023998;28;20022;-60
2023/10/14 00:36:31;;;;;;;28.10;7.20;;;20.30;99.90;;;;;;5019681;28;20030;-56
2023/10/14 00:39:00;;;;;;;18.17;7.45;;;20.40;99.90;;;;;;5026072;28;20579;-55
2023/10/14 00:41:27;;;;;;;18.75;6.20;;;20.40;99.90;;;;;;5019455;28;20104;-56
2023/10/14 00:43:54;;;;;;;23.20;6.38;;;20.40;99.90;;;;;;5022260;28;20558;-57
2023/10/14 00:46:23;;;;;;;19.27;6.18;;;20.40;99.90;;;;;;5018596;28;20412;-55
2023/10/14 00:48:58;;;;;;;17.67;6.10;;;20.40;99.90;;;;;;5028427;28;20033;-56
2023/10/14 00:51:26;;;;;;;18.90;6.68;;;20.40;99.90;;;;;;5020938;28;20030;-56
2023/10/14 00:53:52;;;;;;;13.93;5.55;;;20.30;99.90;;;;;;5019436;28;20251;-55
2023/10/14 00:56:31;;;;;;;18.42;5.47;;;20.30;99.90;;;;;;5016437;28;20634;-59
2023/10/14 00:59:04;;;;;;;18.17;5.50;;;20.30;99.90;;;;;;5028395;28;20431;-56
2023/10/14 01:01:31;;;;;;;16.88;5.47;;;20.30;99.90;;;;;;5018917;28;20156;-55
2023/10/14 01:04:18;;;;;;;30.08;5.22;;;20.30;99.90;;;;;;5012619;28;20037;-58
2023/10/14 01:06:55;;;;;;;12.77;4.97;;;20.30;99.90;;;;;;5022917;28;20026;-56
2023/10/14 01:09:30;;;;;;;17.88;4.72;;;20.30;99.90;;;;;;5014183;28;20109;-56
2023/10/14 01:11:56;;;;;;;16.60;4.70;;;20.30;99.90;;;;;;5025571;28;20176;-53
2023/10/14 01:14:24;;;;;;;10.05;4.80;;;20.30;99.90;;;;;;5017587;28;20739;-53
2023/10/14 01:16:49;;;;;;;13.02;4.65;;;20.30;99.90;;;;;;5016699;28;20102;-57
2023/10/14 01:19:21;;;;;;;29.20;5.70;;;20.30;99.90;;;;;;5024229;28;20470;-54
2023/10/14 01:21:51;;;;;;;13.85;4.55;;;20.30;99.90;;;;;;5023640;28;20480;-57
2023/10/14 01:24:16;;;;;;;10.43;3.83;;;20.30;99.90;;;;;;5025754;28;20521;-51
2023/10/14 01:27:05;;;;;;;16.40;4.40;;;20.20;99.90;;;;;;5018012;28;20018;-55
2023/10/14 01:29:31;;;;;;;15.93;3.95;;;20.20;99.90;;;;;;5014841;28;20017;-56
2023/10/14 01:32:26;;;;;;;15.05;4.63;;;20.20;99.90;;;;;;5023750;28;20021;-57
2023/10/14 01:34:59;;;;;;;14.63;3.63;;;20.00;99.90;;;;;;5016904;28;20042;-60
2023/10/14 01:37:33;;;;;;;10.57;4.25;;;19.60;99.90;;;;;;5018970;28;20033;-56
2023/10/14 01:40:17;;;;;;;12.23;4.07;;;19.20;99.90;;;;;;5020258;28;20075;-57
2023/10/14 01:42:43;;;;;;;12.85;3.75;;;19.00;99.90;;;;;;5019200;28;20108;-54
2023/10/14 01:45:08;;;;;;;12.57;3.92;;;18.80;99.90;;;;;;5023139;28;20108;-57
2023/10/14 01:47:41;;;;;;;12.65;3.65;;;18.60;99.90;;;;;;5017860;28;20048;-55
2023/10/14 01:50:12;;;;;;;7.78;3.35;;;18.40;99.90;;;;;;5021324;28;20557;-57
2023/10/14 01:52:38;;;;;;;13.55;3.40;;;18.10;99.90;;;;;;5017441;28;20032;-55
2023/10/14 01:55:04;;;;;;;15.35;3.63;;;18.10;99.90;;;;;;5024800;28;20034;-57
2023/10/14 01:57:31;;;;;;;6.72;3.33;;;17.90;99.90;;;;;;5015127;28;20026;-53
2023/10/14 01:59:57;;;;;;;8.02;3.40;;;17.70;99.90;;;;;;5019719;28;20040;-53
2023/10/14 02:02:22;;;;;;;12.38;3.60;;;17.70;99.90;;;;;;5016730;28;20042;-53
2023/10/14 02:04:55;;;;;;;9.60;4.00;;;17.70;99.90;;;;;;5021408;28;20079;-55
2023/10/14 02:07:21;;;;;;;12.20;4.30;;;17.60;99.90;;;;;;5017457;28;20036;-57
2023/10/14 02:09:55;;;;;;;9.55;3.90;;;17.70;99.90;;;;;;5019048;28;20117;-53
2023/10/14 02:12:21;;;;;;;21.50;3.43;;;17.60;99.90;;;;;;5017259;28;20049;-56
2023/10/14 02:14:57;;;;;;;9.90;4.10;;;17.60;99.90;;;;;;5021475;28;20492;-52
2023/10/14 02:17:24;;;;;;;10.73;3.60;;;17.50;99.90;;;;;;5022139;28;20579;-53
2023/10/14 02:19:51;;;;;;;12.45;3.97;;;17.50;99.90;;;;;;5017492;28;20124;-58
2023/10/14 02:22:22;;;;;;;14.10;3.33;;;17.50;99.90;;;;;;5028210;28;20026;-59
2023/10/14 02:24:48;;;;;;;7.88;3.45;;;17.40;99.90;;;;;;5025578;28;20038;-58
2023/10/14 02:27:14;;;;;;;7.22;3.15;;;17.40;99.90;;;;;;5023245;28;20109;-58
2023/10/14 02:29:45;;;;;;;7.93;2.97;;;17.40;99.90;;;;;;5022519;28;20237;-58
2023/10/14 02:32:12;;;;;;;6.70;2.22;;;17.50;99.90;;;;;;5016771;28;20014;-56
2023/10/14 02:34:44;;;;;;;7.20;2.75;;;17.50;99.90;;;;;;5016386;28;20026;-55
2023/10/14 02:37:13;;;;;;;16.85;3.22;;;17.60;99.90;;;;;;5014364;28;20038;-55
2023/10/14 02:39:42;;;;;;;7.80;2.10;;;17.60;99.90;;;;;;5015791;28;20021;-59
2023/10/14 02:42:08;;;;;;;4.60;1.50;;;17.30;99.90;;;;;;5018319;28;20034;-58
2023/10/14 02:44:51;;;;;;;4.18;0.90;;;17.00;99.90;;;;;;5019739;28;20075;-58
2023/10/14 02:47:19;;;;;;;2.35;0.73;;;16.40;99.90;;;;;;5015658;28;20025;-58
2023/10/14 02:49:53;;;;;;;1.00;0.57;;;15.80;99.90;;;;;;5019416;28;20080;-58
2023/10/14 02:52:29;;;;;;;4.05;0.85;;;15.50;99.90;;;;;;5025944;28;20022;-59
2023/10/14 02:57:39;;;;;;;;;;;15.20;99.90;;;;;;5019509;28;20037;-59
2023/10/14 03:00:09;;;;;;;2.28;0.65;;;15.10;99.90;;;;;;5021825;28;19917;-60
2023/10/14 03:02:54;;;;;;;2.90;0.70;;;15.00;99.90;;;;;;5021861;28;20030;-57
2023/10/14 03:05:50;;;;;;;3.60;0.60;;;14.90;99.90;;;;;;5017335;28;20022;-54
2023/10/14 03:08:10;;;;;;;0.68;0.63;;;14.80;99.90;;;;;;5018066;28;20691;-57
2023/10/14 03:10:39;;;;;;;0.60;0.50;;;14.80;99.90;;;;;;5021750;28;20530;-56
2023/10/14 03:13:11;;;;;;;7.55;0.70;;;14.80;99.90;;;;;;5017334;28;20029;-57
2023/10/14 03:15:38;;;;;;;0.77;0.70;;;14.80;99.90;;;;;;5017044;28;20124;-58
2023/10/14 03:18:05;;;;;;;1.20;0.70;;;14.80;99.90;;;;;;5015345;28;20063;-54
2023/10/14 03:20:36;;;;;;;2.22;0.77;;;14.80;99.90;;;;;;5023115;28;20076;-59
2023/10/14 03:23:18;;;;;;;3.85;0.47;;;14.70;99.90;;;;;;5017618;28;20026;-60
2023/10/14 03:26:01;;;;;;;2.20;0.60;;;14.70;99.90;;;;;;5017846;28;20030;-55
2023/10/14 03:28:27;;;;;;;3.15;0.82;;;14.70;99.90;;;;;;5021801;28;20042;-55
2023/10/14 03:30:58;;;;;;;3.83;1.05;;;14.70;99.90;;;;;;5022969;28;20025;-57
2023/10/14 03:33:27;;;;;;;2.15;0.93;;;14.60;99.90;;;;;;5018391;28;20045;-60
2023/10/14 03:35:57;;;;;;;2.28;1.05;;;14.60;99.90;;;;;;5020698;28;20032;-56
2023/10/14 03:38:33;;;;;;;1.38;0.90;;;14.60;99.90;;;;;;5025065;28;20133;-57
2023/10/14 03:41:03;;;;;;;2.60;1.15;;;14.60;99.90;;;;;;5022878;28;20033;-54
2023/10/14 03:43:30;;;;;;;1.88;1.10;;;14.60;99.90;;;;;;5018138;28;20018;-59
2023/10/14 03:45:58;;;;;;;1.38;0.88;;;14.60;99.90;;;;;;5024713;28;20037;-57
2023/10/14 03:48:29;;;;;;;4.90;1.13;;;14.60;99.90;;;;;;5023928;28;20494;-57
2023/10/14 03:51:02;;;;;;;2.35;1.33;;;14.60;99.90;;;;;;5020632;28;20057;-57
2023/10/14 03:53:32;;;;;;;1.80;1.58;;;14.50;99.90;;;;;;5023367;28;20028;-56
2023/10/14 03:56:00;;;;;;;6.35;2.03;;;14.50;99.90;;;;;;5022717;28;20554;-56
2023/10/14 03:58:28;;;;;;;3.38;1.80;;;14.40;99.90;;;;;;5020684;28;20037;-57
2023/10/14 04:00:56;;;;;;;2.67;1.40;;;14.40;99.90;;;;;;5018165;28;20140;-56
2023/10/14 04:03:41;;;;;;;3.53;0.95;;;14.20;99.90;;;;;;5017114;28;20476;-56
2023/10/14 04:06:09;;;;;;;5.45;0.80;;;14.00;99.90;;;;;;5022896;28;20025;-57
2023/10/14 04:08:50;;;;;;;3.88;1.23;;;13.80;99.90;;;;;;5017068;28;20026;-60
2023/10/14 04:11:27;;;;;;;7.32;1.25;;;13.70;99.90;;;;;;5020984;28;20036;-56
2023/10/14 04:19:22;;;;;;;11.77;2.00;;;13.30;99.90;;;;;;5020610;28;20460;-60
2023/10/14 04:22:00;;;;;;;16.42;2.15;;;12.90;99.90;;;;;;5021879;28;20202;-59
2023/10/14 04:27:16;;;;;;;18.13;2.35;;;12.50;99.90;;;;;;5021246;28;20116;-57
2023/10/14 04:29:42;;;;;;;29.95;2.97;;;12.50;99.90;;;;;;5016755;28;20038;-59
2023/10/14 04:32:14;;;;;;;;;;;12.40;99.90;;;;;;5029987;28;20079;-57
2023/10/14 04:34:49;;;;;;;18.88;2.60;;;12.40;99.90;;;;;;5024037;28;19909;-60
2023/10/14 04:37:20;;;;;;;13.50;2.22;;;12.30;99.90;;;;;;5011993;28;20033;-56
2023/10/14 04:39:46;;;;;;;18.95;2.90;;;12.40;99.90;;;;;;5021015;28;20038;-61
2023/10/14 04:44:54;;;;;;;25.83;2.50;;;12.30;99.90;;;;;;5031097;28;20637;-61
2023/10/14 04:47:47;;;;;;;19.13;2.63;;;12.20;99.90;;;;;;5015429;28;20038;-59
2023/10/14 04:50:10;;;;;;;17.00;2.75;;;12.20;99.90;;;;;;5015943;28;20060;-59
2023/10/14 04:52:38;;;;;;;19.23;2.72;;;12.30;99.90;;;;;;5020564;28;20025;-60
2023/10/14 04:55:18;;;;;;;35.15;6.32;;;12.30;99.90;;;;;;5027280;28;20495;-58
2023/10/14 04:57:50;;;;;;;19.73;2.75;;;12.30;99.90;;;;;;5016769;28;20384;-59
2023/10/14 05:00:20;;;;;;;22.20;3.00;;;12.30;99.90;;;;;;5024361;28;20034;-60
2023/10/14 05:02:59;;;;;;;23.55;3.80;;;12.30;99.90;;;;;;5017381;28;20131;-60
2023/10/14 05:05:30;;;;;;;13.05;2.38;;;12.30;99.90;;;;;;5019249;28;20456;-61
2023/10/14 05:07:58;;;;;;;16.40;2.17;;;12.40;99.90;;;;;;5012567;28;20075;-57
2023/10/14 05:10:26;;;;;;;18.95;2.92;;;12.30;99.90;;;;;;5016315;28;20087;-58
2023/10/14 05:12:52;;;;;;;20.02;3.45;;;12.40;99.90;;;;;;5012741;28;20033;-63
2023/10/14 05:15:21;;;;;;;19.52;2.85;;;12.40;99.90;;;;;;5012852;28;20033;-59
2023/10/14 05:17:50;;;;;;;16.45;4.03;;;12.40;99.90;;;;;;5011970;28;20110;-62
2023/10/14 05:20:19;;;;;;;19.02;3.33;;;12.40;99.90;;;;;;5015451;28;20026;-61
2023/10/14 05:22:47;;;;;;;18.10;3.45;;;12.50;99.90;;;;;;5010744;28;20044;-59
2023/10/14 05:25:16;;;;;;;21.83;3.00;;;12.50;99.90;;;;;;5011368;28;20495;-57
2023/10/14 05:27:55;;;;;;;17.92;2.92;;;12.50;99.90;;;;;;5011455;28;20033;-61
2023/10/14 05:30:21;;;;;;;17.58;3.03;;;12.50;99.90;;;;;;5010571;28;20021;-61
2023/10/14 05:32:48;;;;;;;25.02;3.70;;;12.50;99.90;;;;;;5011540;28;20030;-61
2023/10/14 05:35:14;;;;;;;25.85;3.72;;;12.60;99.90;;;;;;5014213;28;20039;-61
2023/10/14 05:37:41;;;;;;;14.40;2.42;;;12.60;99.90;;;;;;5010680;28;20108;-60
2023/10/14 05:40:13;;;;;;;11.90;4.03;;;12.60;99.90;;;;;;5009789;28;20026;-56
2023/10/14 05:42:43;;;;;;;26.30;3.17;;;12.60;99.90;;;;;;5011446;28;20030;-55
2023/10/14 05:45:11;;;;;;;20.98;3.50;;;12.50;99.90;;;;;;5010754;28;20740;-60
2023/10/14 05:47:37;;;;;;;12.20;2.50;;;12.50;99.90;;;;;;5010190;28;20530;-60
2023/10/14 05:50:09;;;;;;;21.33;3.92;;;12.40;99.90;;;;;;5010491;28;20124;-61
2023/10/14 05:52:34;;;;;;;13.65;2.45;;;12.40;99.90;;;;;;5006329;28;20060;-60
2023/10/14 05:55:05;;;;;;;16.52;2.38;;;12.40;99.90;;;;;;5008463;28;20033;-62
2023/10/14 05:57:34;;;;;;;20.77;3.03;;;12.30;99.90;;;;;;5009421;28;20029;-61
2023/10/14 06:00:01;;;;;;;25.08;3.28;;;12.30;99.90;;;;;;5012472;28;20017;-62
2023/10/14 06:02:26;;;;;;;20.27;2.60;;;12.30;99.90;;;;;;5010055;28;20033;-61
2023/10/14 06:04:52;;;;;;;24.80;3.10;;;12.30;99.90;;;;;;5007980;28;20245;-60
2023/10/14 06:07:18;;;;;;;18.95;3.08;;;12.30;99.90;;;;;;5008625;28;20018;-60
2023/10/14 06:09:47;;;;;;;16.35;3.00;;;12.30;99.90;;;;;;5011996;28;20021;-59
2023/10/14 06:12:13;;;;;;;22.85;2.67;;;12.20;99.90;;;;;;5011031;28;20030;-62
2023/10/14 06:14:43;;;;;;;30.33;3.13;;;12.20;99.90;;;;;;5008316;28;20438;-59
2023/10/14 06:17:09;;;;;;;16.00;2.70;;;12.20;99.90;;;;;;5008179;28;20033;-61
2023/10/14 06:19:38;;;;;;;20.52;2.70;;;12.10;99.90;;;;;;5012632;28;20025;-59
2023/10/14 06:22:03;;;;;;;17.75;2.28;;;12.10;99.90;;;;;;5014018;28;20511;-58
2023/10/14 06:24:29;;;;;;;13.10;2.45;;;12.10;99.90;;;;;;5011392;28;20033;-60
2023/10/14 06:27:08;;;;;;;21.92;2.90;;;12.10;99.90;;;;;;5010550;28;20030;-59
2023/10/14 06:29:35;;;;;;;29.25;3.42;;;12.10;99.90;;;;;;5012695;28;20087;-58
2023/10/14 06:32:03;;;;;;;27.50;2.90;;;12.20;99.90;;;;;;5017915;28;20550;-59
2023/10/14 06:34:31;;;;;;;17.35;3.05;;;12.30;99.90;;;;;;5015349;28;20402;-57
2023/10/14 06:37:01;;;;;;;21.02;3.10;;;12.30;99.90;;;;;;5013336;28;20041;-58
2023/10/14 06:39:27;;;;;;;19.20;2.90;;;12.20;99.90;;;;;;5011097;28;20113;-60
2023/10/14 06:41:53;;;;;;;12.27;2.50;;;12.30;99.90;;;;;;5013430;28;20117;-59
2023/10/14 06:44:21;;;;;;;17.48;3.10;;;12.30;99.90;;;;;;5010276;28;20028;-65
2023/10/14 06:46:47;;;;;;;17.17;2.60;;;12.40;99.90;;;;;;5014269;28;20049;-57
2023/10/14 06:49:16;;;;;;;20.70;4.43;;;12.30;99.90;;;;;;5015176;28;20439;-53
2023/10/14 06:51:44;;;;;;;14.68;2.40;;;12.40;99.90;;;;;;5011230;28;20029;-58
2023/10/14 06:54:13;;;;;;;14.50;2.40;;;12.40;99.90;;;;;;5008754;28;20034;-61
2023/10/14 06:56:44;;;;;;;22.38;3.28;;;12.40;99.90;;;;;;5011818;28;20026;-59
2023/10/14 06:59:13;;;;;;;14.80;2.35;;;12.40;99.90;;;;;;5012329;28;20033;-58
2023/10/14 07:01:38;;;;;;;18.50;2.53;;;12.40;99.90;;;;;;5017608;28;20658;-58
2023/10/14 07:04:04;;;;;;;14.52;2.70;;;12.40;99.90;;;;;;5021513;28;20041;-60
2023/10/14 07:06:30;;;;;;;17.80;2.58;;;12.30;99.90;;;;;;5024641;28;20030;-58
2023/10/14 07:08:55;;;;;;;15.93;2.60;;;12.40;99.90;;;;;;5021851;28;20079;-57
2023/10/14 07:11:21;;;;;;;28.73;3.22;;;12.40;99.90;;;;;;5026680;28;20116;-60
2023/10/14 07:13:47;;;;;;;18.45;2.83;;;12.40;99.90;;;;;;5016827;28;20383;-52
2023/10/14 07:16:13;;;;;;;19.48;2.70;;;12.40;99.90;;;;;;5016628;28;20058;-56
2023/10/14 07:18:40;;;;;;;19.70;2.88;;;12.40;99.90;;;;;;5026334;28;20022;-55
2023/10/14 07:21:12;;;;;;;14.68;2.92;;;12.40;99.90;;;;;;5027368;28;20061;-57
2023/10/14 07:23:39;;;;;;;11.80;2.75;;;12.40;99.90;;;;;;5022999;28;20067;-57
2023/10/14 07:26:11;;;;;;;19.52;2.38;;;12.30;99.90;;;;;;5027980;28;20148;-56
2023/10/14 07:28:42;;;;;;;23.67;2.83;;;12.30;99.90;;;;;;5020476;28;20506;-57
2023/10/14 07:31:10;;;;;;;16.70;2.78;;;12.40;99.90;;;;;;5019269;28;20030;-59
2023/10/14 07:33:37;;;;;;;25.13;2.72;;;12.40;99.90;;;;;;5022617;28;20404;-59
2023/10/14 07:36:06;;;;;;;18.73;2.55;;;12.50;99.90;;;;;;5013089;28;20488;-59
2023/10/14 07:38:35;;;;;;;28.33;2.78;;;12.50;99.90;;;;;;5023754;28;20080;-62
2023/10/14 07:41:01;;;;;;;20.40;2.70;;;12.50;99.90;;;;;;5017538;28;20025;-60
2023/10/14 07:43:27;;;;;;;13.15;3.08;;;12.40;99.90;;;;;;5019077;28;20040;-62
2023/10/14 07:45:53;;;;;;;17.63;2.63;;;12.50;99.90;;;;;;5022583;28;20030;-62
2023/10/14 07:48:19;;;;;;;20.27;2.85;;;12.50;99.90;;;;;;5020104;28;20089;-57
2023/10/14 07:50:48;;;;;;;15.35;3.13;;;12.50;99.90;;;;;;5018951;28;20022;-58
2023/10/14 07:53:15;;;;;;;25.77;2.80;;;12.50;99.90;;;;;;5025040;28;20025;-61
2023/10/14 07:55:41;;;;;;;13.88;2.70;;;12.50;99.90;;;;;;5025356;28;20026;-60
2023/10/14 07:58:10;;;;;;;18.20;3.72;;;12.50;99.90;;;;;;5022684;28;20025;-59
2023/10/14 08:00:41;;;;;;;19.73;3.22;;;12.50;99.90;;;;;;5019484;28;20250;-61
2023/10/14 08:03:09;;;;;;;14.93;2.60;;;12.60;99.90;;;;;;5017736;28;20163;-59
2023/10/14 08:05:39;;;;;;;17.48;2.65;;;12.70;99.90;;;;;;5023601;28;20048;-59
2023/10/14 08:08:09;;;;;;;25.13;2.78;;;12.70;99.90;;;;;;5014964;28;20025;-61
2023/10/14 08:10:36;;;;;;;25.92;3.33;;;12.70;99.90;;;;;;5019680;28;20029;-61
2023/10/14 08:13:04;;;;;;;26.63;2.92;;;12.70;99.90;;;;;;5019189;28;20028;-61
2023/10/14 08:15:30;;;;;;;18.88;2.63;;;12.70;99.90;;;;;;5020954;28;20520;-59
2023/10/14 08:18:00;;;;;;;22.25;3.13;;;12.70;99.90;;;;;;5024400;28;20505;-60
2023/10/14 08:20:28;;;;;;;18.23;3.20;;;12.70;99.90;;;;;;5017772;28;20488;-62
2023/10/14 08:22:54;;;;;;;22.35;3.70;;;12.80;99.90;;;;;;5020604;28;20399;-60
2023/10/14 08:25:21;;;;;;;24.60;2.85;;;12.80;99.90;;;;;;5024934;28;20037;-58
2023/10/14 08:27:47;;;;;;;14.23;3.40;;;12.80;99.90;;;;;;5020081;28;20021;-61
2023/10/14 08:30:13;;;;;;;22.65;3.65;;;12.90;99.90;;;;;;5020344;28;20627;-60
2023/10/14 08:32:46;;;;;;;14.13;2.60;;;12.90;99.90;;;;;;5017494;28;20822;-60
2023/10/14 08:35:16;;;;;;;13.95;2.78;;;12.90;99.90;;;;;;5018181;28;20034;-58
2023/10/14 08:37:50;;;;;;;17.60;3.25;;;13.00;99.90;;;;;;5023810;28;20560;-59
2023/10/14 08:40:25;;;;;;;18.60;3.58;;;13.10;99.90;;;;;;5023455;28;20026;-61
2023/10/14 08:43:07;;;;;;;22.10;2.85;;;13.20;99.90;;;;;;5018985;28;20052;-61
2023/10/14 08:45:38;;;;;;;18.90;2.30;;;13.20;99.90;;;;;;5017641;28;20082;-61
2023/10/14 08:48:05;;;;;;;14.35;2.60;;;13.20;99.90;;;;;;5020109;28;20022;-59
2023/10/14 08:50:35;;;;;;;27.60;2.90;;;13.20;99.90;;;;;;5023817;28;20033;-61
2023/10/14 08:53:07;;;;;;;18.60;3.33;;;13.10;99.90;;;;;;5019991;28;20098;-60
2023/10/14 08:55:34;;;;;;;17.77;3.10;;;13.20;99.90;;;;;;5019847;28;20033;-61
2023/10/14 08:58:02;;;;;;;16.30;2.35;;;13.10;99.90;;;;;;5025120;28;20032;-60
2023/10/14 09:00:29;;;;;;;19.75;3.03;;;13.20;99.90;;;;;;5019870;28;20029;-61
2023/10/14 09:02:57;;;;;;;27.35;2.90;;;13.20;99.90;;;;;;5022515;28;20130;-61
2023/10/14 09:05:26;;;;;;;30.05;4.07;;;13.20;99.90;;;;;;5019643;28;20028;-60
2023/10/14 09:07:54;;;;;;;18.48;2.42;;;13.10;99.90;;;;;;5021614;28;20025;-60
2023/10/14 09:10:24;;;;;;;26.15;3.13;;;13.20;99.90;;;;;;5026534;28;20024;-60
2023/10/14 09:12:59;;;;;;;16.40;3.40;;;13.30;99.90;;;;;;5026079;28;20029;-62
2023/10/14 09:15:25;;;;;;;;;;;13.30;99.90;;;;;;5023580;28;20034;-59
2023/10/14 09:17:55;;;;;;;25.67;3.40;;;13.30;99.90;;;;;;5026095;28;19925;-59
2023/10/14 09:20:28;;;;;;;21.30;3.10;;;13.30;99.90;;;;;;5015763;28;20034;-58
2023/10/14 09:23:14;;;;;;;25.98;3.38;;;13.30;99.90;;;;;;5025011;28;20041;-59
2023/10/14 09:25:49;;;;;;;15.52;3.03;;;13.30;99.90;;;;;;5019146;28;20026;-61
2023/10/14 09:28:20;;;;;;;18.38;3.00;;;13.50;99.90;;;;;;5021593;28;20433;-60
2023/10/14 09:30:53;;;;;;;14.98;2.88;;;13.50;99.90;;;;;;5019022;28;20033;-61
2023/10/14 09:33:27;;;;;;;18.75;2.85;;;13.50;99.90;;;;;;5020360;28;20036;-57
2023/10/14 09:35:54;;;;;;;;;;;13.60;99.90;;;;;;5022229;28;20030;-57
2023/10/14 09:38:22;;;;;;;20.58;2.72;;;13.50;99.90;;;;;;5024551;28;19920;-58
2023/10/14 09:41:04;;;;;;;15.43;2.55;;;13.60;99.90;;;;;;5018843;28;20026;-61
2023/10/14 09:43:32;;;;;;;15.65;3.10;;;13.60;99.90;;;;;;5025233;28;20236;-59
2023/10/14 09:45:59;;;;;;;20.90;3.03;;;13.70;99.90;;;;;;5018803;28;20044;-57
2023/10/14 09:48:29;;;;;;;19.42;2.60;;;13.80;99.90;;;;;;5019527;28;20029;-60
2023/10/14 09:51:02;;;;;;;28.08;4.25;;;13.90;99.90;;;;;;5021991;28;20088;-59
2023/10/14 09:53:32;;;;;;;15.98;3.05;;;14.00;99.90;;;;;;5020198;28;20033;-61
2023/10/14 09:56:16;;;;;;;17.50;2.95;;;14.10;99.90;;;;;;5024030;28;20033;-61
2023/10/14 09:58:43;;;;;;;14.37;3.00;;;14.00;99.90;;;;;;5021784;28;20029;-61
2023/10/14 10:01:18;;;;;;;14.57;2.60;;;14.10;99.90;;;;;;5021738;28;20029;-61
2023/10/14 10:03:49;;;;;;;10.25;2.47;;;14.10;99.90;;;;;;5020273;28;20053;-61
2023/10/14 10:06:48;;;;;;;15.68;2.90;;;14.10;99.90;;;;;;5023094;28;20036;-61
2023/10/14 10:09:37;;;;;;;25.90;3.28;;;13.90;99.90;;;;;;5015959;28;20661;-61
2023/10/14 10:12:04;;;;;;;16.98;3.22;;;13.80;99.90;;;;;;5018040;28;20523;-61
2023/10/14 10:14:37;;;;;;;19.85;3.78;;;13.80;99.90;;;;;;5019085;28;20026;-60
2023/10/14 10:17:08;;;;;;;15.43;2.75;;;13.80;99.90;;;;;;5015715;28;20025;-61
2023/10/14 10:19:53;;;;;;;17.30;3.17;;;13.80;99.90;;;;;;5020511;28;20081;-59
2023/10/14 10:22:18;;;;;;;18.13;2.47;;;13.90;99.90;;;;;;5018661;28;20034;-61
2023/10/14 10:24:47;;;;;;;15.32;2.45;;;14.10;99.90;;;;;;5019496;28;20098;-62
2023/10/14 10:27:16;;;;;;;15.55;2.45;;;14.20;99.90;;;;;;5018584;28;20075;-61
2023/10/14 10:29:45;;;;;;;17.75;3.17;;;14.30;99.90;;;;;;5016538;28;20400;-61
2023/10/14 10:32:19;;;;;;;17.83;3.65;;;14.40;99.90;;;;;;5013681;28;20361;-60
2023/10/14 10:35:13;;;;;;;8.32;2.05;;;14.50;99.90;;;;;;5017308;28;20455;-59
2023/10/14 10:37:59;;;;;;;17.50;2.55;;;14.20;99.90;;;;;;5020843;28;20491;-60
2023/10/14 10:40:27;;;;;;;20.50;2.60;;;14.30;99.90;;;;;;5022948;28;20042;-60
2023/10/14 10:43:06;;;;;;;18.35;2.53;;;14.40;99.90;;;;;;5025966;28;20022;-59
2023/10/14 10:45:35;;;;;;;19.10;2.00;;;14.50;99.90;;;;;;5026560;28;20021;-60
2023/10/14 10:48:05;;;;;;;14.90;2.28;;;14.60;99.90;;;;;;5027730;28;20018;-60
2023/10/14 10:50:40;;;;;;;16.98;2.72;;;14.70;99.90;;;;;;5019369;28;20028;-60
2023/10/14 10:53:05;;;;;;;;;;;14.90;99.90;;;;;;5020390;28;20022;-57
2023/10/14 10:55:31;;;;;;;12.48;2.20;;;15.00;99.90;;;;;;5021434;28;20559;-61
2023/10/14 10:58:00;;;;;;;15.05;2.40;;;14.80;99.90;;;;;;5019774;28;20030;-60
2023/10/14 11:00:31;;;;;;;16.08;2.53;;;14.70;99.90;;;;;;5017790;28;20042;-59
2023/10/14 11:02:58;;;;;;;9.75;1.95;;;14.70;99.90;;;;;;5021885;28;20026;-59
2023/10/14 11:05:25;;;;;;;11.65;2.03;;;14.70;99.90;;;;;;5019809;28;20057;-60
2023/10/14 11:07:52;;;;;;;13.80;2.28;;;14.60;99.90;;;;;;5018577;28;20029;-61
2023/10/14 11:10:44;;;;;;;13.68;2.08;;;14.80;99.90;;;;;;5025086;28;20026;-60
2023/10/14 11:13:11;;;;;;;16.00;1.77;;;14.90;99.90;;;;;;5014356;28;20026;-57
2023/10/14 11:15:38;;;;;;;18.65;1.95;;;15.00;99.90;;;;;;5013060;28;20029;-58
2023/10/14 11:18:05;;;;;;;9.18;1.52;;;14.90;99.90;;;;;;5018499;28;20022;-60
2023/10/14 11:20:45;;;;;;;14.02;2.33;;;14.70;99.90;;;;;;5019422;28;20612;-60
2023/10/14 11:23:16;;;;;;;11.82;1.83;;;14.60;99.90;;;;;;5023932;28;20037;-58
2023/10/14 11:25:42;;;;;;;14.82;2.03;;;14.70;99.90;;;;;;5018869;28;20831;-58
2023/10/14 11:28:14;;;;;;;15.20;2.50;;;14.60;99.90;;;;;;5017821;28;20049;-55
2023/10/14 11:30:45;;;;;;;15.95;2.55;;;14.50;99.90;;;;;;5018212;28;20037;-58
2023/10/14 11:33:12;;;;;;;9.75;2.47;;;14.40;99.90;;;;;;5021437;28;20060;-60
2023/10/14 11:35:38;;;;;;;15.82;2.42;;;14.40;99.90;;;;;;5030708;28;20385;-56
2023/10/14 11:38:07;;;;;;;10.75;1.88;;;14.40;99.90;;;;;;5024158;28;20040;-58
2023/10/14 11:40:39;;;;;;;10.65;1.98;;;14.30;99.90;;;;;;5020677;28;20033;-60
2023/10/14 11:43:05;;;;;;;14.93;2.20;;;14.40;99.90;;;;;;5020790;28;20689;-61
2023/10/14 11:45:31;;;;;;;11.55;2.03;;;14.30;99.90;;;;;;5019435;28;20407;-60
2023/10/14 11:48:00;;;;;;;12.25;2.22;;;14.70;99.90;;;;;;5022060;28;20033;-59
2023/10/14 11:50:26;;;;;;;14.07;1.70;;;15.10;99.90;;;;;;5025001;28;20025;-59
2023/10/14 11:52:56;;;;;;;10.70;1.90;;;15.40;99.90;;;;;;5019709;28;20041;-59
2023/10/14 11:55:25;;;;;;;8.60;1.60;;;15.30;99.90;;;;;;5024853;28;20052;-57
2023/10/14 11:57:53;;;;;;;13.38;2.50;;;15.40;99.90;;;;;;5026712;28;20424;-60
2023/10/14 12:00:20;;;;;;;15.63;2.13;;;15.60;99.90;;;;;;5019959;28;20507;-58
2023/10/14 12:02:49;;;;;;;7.88;2.25;;;15.80;99.90;;;;;;5022184;28;20073;-57
2023/10/14 12:05:19;;;;;;;11.77;1.80;;;16.10;99.90;;;;;;5023780;28;20048;-57
2023/10/14 12:07:47;;;;;;;13.85;2.08;;;16.40;99.90;;;;;;5025500;28;20041;-59
2023/10/14 12:10:12;;;;;;;7.50;2.05;;;16.30;99.90;;;;;;5024584;28;20052;-60
2023/10/14 12:12:39;;;;;;;14.27;1.95;;;16.50;99.90;;;;;;5022783;28;20033;-56
2023/10/14 12:15:06;;;;;;;12.60;1.65;;;16.20;99.90;;;;;;5017196;28;20037;-53
2023/10/14 12:17:38;;;;;;;13.48;1.75;;;15.90;99.90;;;;;;5020214;28;20100;-55
2023/10/14 12:20:10;;;;;;;8.60;1.90;;;15.60;99.90;;;;;;5021597;28;20048;-59
2023/10/14 12:22:40;;;;;;;10.35;1.80;;;15.40;99.90;;;;;;5020555;28;20029;-52
2023/10/14 12:25:06;;;;;;;9.27;1.77;;;15.30;99.90;;;;;;5024881;28;20021;-59
2023/10/14 12:27:33;;;;;;;12.10;1.58;;;15.80;99.90;;;;;;5023081;28;20095;-59
2023/10/14 12:30:02;;;;;;;8.10;1.83;;;16.30;99.90;;;;;;5021809;28;20108;-58
2023/10/14 12:32:30;;;;;;;16.65;2.10;;;16.60;99.90;;;;;;5020505;28;20037;-59
2023/10/14 12:34:58;;;;;;;11.70;1.65;;;16.70;99.90;;;;;;5023014;28;20044;-60
2023/10/14 12:37:25;;;;;;;7.22;1.38;;;16.90;99.90;;;;;;5023961;28;20045;-59
2023/10/14 12:40:04;;;;;;;13.77;2.00;;;16.90;99.90;;;;;;5022459;28;20057;-58
2023/10/14 12:42:46;;;;;;;11.85;2.42;;;16.80;99.90;;;;;;5021035;28;20582;-58
2023/10/14 12:45:13;;;;;;;11.48;2.22;;;16.80;99.90;;;;;;5024496;28;20057;-60
2023/10/14 12:47:46;;;;;;;10.30;1.65;;;17.00;99.90;;;;;;5026440;28;20430;-58
2023/10/14 12:50:19;;;;;;;13.57;1.75;;;16.90;99.90;;;;;;5023903;28;20070;-57
2023/10/14 12:52:59;;;;;;;12.10;1.77;;;17.00;99.90;;;;;;5024081;28;20049;-58
2023/10/14 12:55:26;;;;;;;7.22;1.70;;;17.00;99.90;;;;;;5026030;28;20056;-59
2023/10/14 12:57:52;;;;;;;7.07;1.80;;;17.10;99.90;;;;;;5027481;28;20045;-55
2023/10/14 13:00:25;;;;;;;7.03;1.77;;;16.70;99.90;;;;;;5023206;28;20148;-59
2023/10/14 13:02:55;;;;;;;6.07;1.48;;;16.60;99.90;;;;;;5025771;28;20033;-60
2023/10/14 13:05:22;;;;;;;8.52;1.70;;;16.60;99.90;;;;;;5026146;28;20036;-59
2023/10/14 13:07:52;;;;;;;8.32;1.73;;;16.80;99.90;;;;;;5027254;28;20040;-60
2023/10/14 13:10:21;;;;;;;11.98;1.85;;;16.90;99.90;;;;;;5024628;28;20057;-60